sensor_id;sensor_type;location;lat;lon;timestamp;P1;durP1;ratioP1;P2;durP2;ratioP2
12980;SDS011;6555;50.468;8.480;2023-01-29T00:01:58;2.20;;;2.00;;
12980;SDS011;6555;50.468;8.480;2023-01-29T00:07:28;1.80;;;1.70;;
12980;SDS011;6555;50.468;8.480;2023-01-29T00:19:53;2.03;;;1.93;;
12980;SDS011;6555;50.468;8.480;2023-01-29T00:25:23;2.10;;;1.90;;
12980;SDS011;6555;50.468;8.480;2023-01-29T00:30:39;2.23;;;2.03;;
12980;SDS011;6555;50.468;8.480;2023-01-29T00:36:12;2.53;;;1.90;;
12980;SDS011;6555;50.468;8.480;2023-01-29T00:41:30;1.93;;;1.80;;
12980;SDS011;6555;50.468;8.480;2023-01-29T00:47:18;1.53;;;1.43;;
12980;SDS011;6555;50.468;8.480;2023-01-29T00:52:49;2.13;;;1.93;;
12980;SDS011;6555;50.468;8.480;2023-01-29T00:58:19;2.23;;;2.03;;
12980;SDS011;6555;50.468;8.480;2023-01-29T01:03:47;2.50;;;2.30;;
12980;SDS011;6555;50.468;8.480;2023-01-29T01:09:18;2.10;;;1.90;;
12980;SDS011;6555;50.468;8.480;2023-01-29T01:14:52;2.30;;;2.10;;
12980;SDS011;6555;50.468;8.480;2023-01-29T01:20:23;2.03;;;1.87;;
12980;SDS011;6555;50.468;8.480;2023-01-29T01:25:42;2.63;;;1.90;;
12980;SDS011;6555;50.468;8.480;2023-01-29T01:31:12;2.03;;;1.83;;
12980;SDS011;6555;50.468;8.480;2023-01-29T01:36:29;2.20;;;2.00;;
12980;SDS011;6555;50.468;8.480;2023-01-29T01:42:00;2.23;;;2.03;;
12980;SDS011;6555;50.468;8.480;2023-01-29T01:47:18;2.60;;;2.17;;
12980;SDS011;6555;50.468;8.480;2023-01-29T01:52:51;2.40;;;2.20;;
12980;SDS011;6555;50.468;8.480;2023-01-29T01:58:13;2.03;;;1.83;;
12980;SDS011;6555;50.468;8.480;2023-01-29T02:03:46;2.83;;;2.60;;
12980;SDS011;6555;50.468;8.480;2023-01-29T02:09:41;2.30;;;2.10;;
12980;SDS011;6555;50.468;8.480;2023-01-29T02:15:06;2.20;;;2.00;;
12980;SDS011;6555;50.468;8.480;2023-01-29T02:20:37;2.47;;;2.27;;
12980;SDS011;6555;50.468;8.480;2023-01-29T02:26:12;2.43;;;2.13;;
12980;SDS011;6555;50.468;8.480;2023-01-29T02:31:53;2.60;;;1.93;;
12980;SDS011;6555;50.468;8.480;2023-01-29T02:37:17;2.03;;;1.77;;
12980;SDS011;6555;50.468;8.480;2023-01-29T02:42:56;2.00;;;1.80;;
12980;SDS011;6555;50.468;8.480;2023-01-29T02:48:23;1.70;;;1.60;;
12980;SDS011;6555;50.468;8.480;2023-01-29T02:53:58;1.73;;;1.40;;
12980;SDS011;6555;50.468;8.480;2023-01-29T02:59:19;2.17;;;1.77;;
12980;SDS011;6555;50.468;8.480;2023-01-29T03:04:54;2.20;;;2.00;;
12980;SDS011;6555;50.468;8.480;2023-01-29T03:15:48;1.80;;;1.63;;
12980;SDS011;6555;50.468;8.480;2023-01-29T03:21:21;1.93;;;1.83;;
12980;SDS011;6555;50.468;8.480;2023-01-29T03:27:20;1.87;;;1.73;;
12980;SDS011;6555;50.468;8.480;2023-01-29T03:32:58;1.77;;;1.63;;
12980;SDS011;6555;50.468;8.480;2023-01-29T03:38:33;2.47;;;1.93;;
12980;SDS011;6555;50.468;8.480;2023-01-29T03:43:50;1.70;;;1.60;;
12980;SDS011;6555;50.468;8.480;2023-01-29T03:49:31;2.13;;;1.83;;
12980;SDS011;6555;50.468;8.480;2023-01-29T03:54:57;1.60;;;1.50;;
12980;SDS011;6555;50.468;8.480;2023-01-29T04:00:37;1.70;;;1.60;;
12980;SDS011;6555;50.468;8.480;2023-01-29T04:05:58;1.50;;;1.40;;
12980;SDS011;6555;50.468;8.480;2023-01-29T04:11:44;1.87;;;1.77;;
12980;SDS011;6555;50.468;8.480;2023-01-29T04:17:06;1.67;;;1.57;;
12980;SDS011;6555;50.468;8.480;2023-01-29T04:22:49;1.60;;;1.50;;
12980;SDS011;6555;50.468;8.480;2023-01-29T04:28:09;1.50;;;1.37;;
12980;SDS011;6555;50.468;8.480;2023-01-29T04:33:47;1.47;;;1.37;;
12980;SDS011;6555;50.468;8.480;2023-01-29T04:39:16;1.53;;;1.43;;
12980;SDS011;6555;50.468;8.480;2023-01-29T04:44:53;2.67;;;2.13;;
12980;SDS011;6555;50.468;8.480;2023-01-29T04:50:19;1.73;;;1.63;;
12980;SDS011;6555;50.468;8.480;2023-01-29T04:55:54;1.90;;;1.77;;
12980;SDS011;6555;50.468;8.480;2023-01-29T05:01:16;2.87;;;2.00;;
12980;SDS011;6555;50.468;8.480;2023-01-29T05:06:49;1.60;;;1.50;;
12980;SDS011;6555;50.468;8.480;2023-01-29T05:12:07;1.50;;;1.33;;
12980;SDS011;6555;50.468;8.480;2023-01-29T05:17:41;2.07;;;1.77;;
12980;SDS011;6555;50.468;8.480;2023-01-29T05:22:57;2.20;;;2.00;;
12980;SDS011;6555;50.468;8.480;2023-01-29T05:28:27;3.17;;;1.70;;
12980;SDS011;6555;50.468;8.480;2023-01-29T05:33:45;1.70;;;1.40;;
12980;SDS011;6555;50.468;8.480;2023-01-29T05:39:16;2.00;;;1.80;;
12980;SDS011;6555;50.468;8.480;2023-01-29T05:44:32;1.63;;;1.50;;
12980;SDS011;6555;50.468;8.480;2023-01-29T05:50:04;2.13;;;1.93;;
12980;SDS011;6555;50.468;8.480;2023-01-29T05:55:22;2.30;;;2.10;;
12980;SDS011;6555;50.468;8.480;2023-01-29T06:00:51;2.10;;;1.93;;
12980;SDS011;6555;50.468;8.480;2023-01-29T06:06:09;2.27;;;2.03;;
12980;SDS011;6555;50.468;8.480;2023-01-29T07:10:08;2.30;;;2.10;;
12980;SDS011;6555;50.468;8.480;2023-01-29T07:15:25;2.43;;;2.17;;
12980;SDS011;6555;50.468;8.480;2023-01-29T07:20:56;2.90;;;2.47;;
12980;SDS011;6555;50.468;8.480;2023-01-29T07:26:14;2.70;;;2.40;;
12980;SDS011;6555;50.468;8.480;2023-01-29T07:31:44;4.43;;;2.73;;
12980;SDS011;6555;50.468;8.480;2023-01-29T07:37:00;2.87;;;2.57;;
12980;SDS011;6555;50.468;8.480;2023-01-29T07:42:32;3.97;;;3.43;;
12980;SDS011;6555;50.468;8.480;2023-01-29T07:47:50;4.10;;;3.20;;
12980;SDS011;6555;50.468;8.480;2023-01-29T07:53:20;4.00;;;3.23;;
12980;SDS011;6555;50.468;8.480;2023-01-29T07:58:45;3.20;;;2.90;;
12980;SDS011;6555;50.468;8.480;2023-01-29T08:04:14;2.53;;;2.27;;
12980;SDS011;6555;50.468;8.480;2023-01-29T08:09:44;3.20;;;2.90;;
12980;SDS011;6555;50.468;8.480;2023-01-29T08:15:02;3.30;;;3.00;;
12980;SDS011;6555;50.468;8.480;2023-01-29T08:20:32;7.37;;;5.40;;
12980;SDS011;6555;50.468;8.480;2023-01-29T08:25:48;4.30;;;3.43;;
12980;SDS011;6555;50.468;8.480;2023-01-29T08:31:20;5.30;;;4.23;;
12980;SDS011;6555;50.468;8.480;2023-01-29T08:36:36;4.47;;;3.63;;
12980;SDS011;6555;50.468;8.480;2023-01-29T08:42:06;5.27;;;4.57;;
12980;SDS011;6555;50.468;8.480;2023-01-29T08:47:24;4.67;;;4.17;;
12980;SDS011;6555;50.468;8.480;2023-01-29T08:52:56;5.80;;;4.87;;
12980;SDS011;6555;50.468;8.480;2023-01-29T08:58:13;7.50;;;6.07;;
12980;SDS011;6555;50.468;8.480;2023-01-29T09:03:45;7.07;;;5.83;;
12980;SDS011;6555;50.468;8.480;2023-01-29T09:09:01;8.70;;;5.77;;
12980;SDS011;6555;50.468;8.480;2023-01-29T09:14:31;7.87;;;6.63;;
12980;SDS011;6555;50.468;8.480;2023-01-29T09:19:49;7.87;;;6.50;;
12980;SDS011;6555;50.468;8.480;2023-01-29T09:25:19;12.37;;;9.67;;
12980;SDS011;6555;50.468;8.480;2023-01-29T09:30:35;11.40;;;9.20;;
12980;SDS011;6555;50.468;8.480;2023-01-29T09:36:07;13.17;;;9.37;;
12980;SDS011;6555;50.468;8.480;2023-01-29T09:41:27;12.17;;;9.20;;
12980;SDS011;6555;50.468;8.480;2023-01-29T09:47:10;9.40;;;7.40;;
12980;SDS011;6555;50.468;8.480;2023-01-29T09:52:31;11.17;;;9.47;;
12980;SDS011;6555;50.468;8.480;2023-01-29T09:58:04;12.17;;;10.53;;
12980;SDS011;6555;50.468;8.480;2023-01-29T10:03:30;19.97;;;10.40;;
12980;SDS011;6555;50.468;8.480;2023-01-29T10:15:01;13.83;;;10.10;;
12980;SDS011;6555;50.468;8.480;2023-01-29T10:20:46;16.93;;;11.97;;
12980;SDS011;6555;50.468;8.480;2023-01-29T10:26:09;14.80;;;10.20;;
12980;SDS011;6555;50.468;8.480;2023-01-29T10:31:40;12.37;;;8.37;;
12980;SDS011;6555;50.468;8.480;2023-01-29T10:36:58;12.80;;;9.67;;
12980;SDS011;6555;50.468;8.480;2023-01-29T10:42:37;12.40;;;9.50;;
12980;SDS011;6555;50.468;8.480;2023-01-29T10:48:06;12.10;;;9.70;;
12980;SDS011;6555;50.468;8.480;2023-01-29T10:53:58;9.83;;;8.43;;
12980;SDS011;6555;50.468;8.480;2023-01-29T10:59:35;11.53;;;9.03;;
12980;SDS011;6555;50.468;8.480;2023-01-29T11:05:16;12.40;;;9.50;;
12980;SDS011;6555;50.468;8.480;2023-01-29T11:10:39;13.17;;;10.80;;
12980;SDS011;6555;50.468;8.480;2023-01-29T11:16:16;11.27;;;9.57;;
12980;SDS011;6555;50.468;8.480;2023-01-29T11:21:33;10.93;;;8.70;;
12980;SDS011;6555;50.468;8.480;2023-01-29T11:27:20;11.90;;;9.40;;
12980;SDS011;6555;50.468;8.480;2023-01-29T11:32:41;12.13;;;9.83;;
12980;SDS011;6555;50.468;8.480;2023-01-29T11:38:17;13.67;;;10.40;;
12980;SDS011;6555;50.468;8.480;2023-01-29T11:43:35;13.57;;;9.03;;
12980;SDS011;6555;50.468;8.480;2023-01-29T11:49:12;13.30;;;9.97;;
12980;SDS011;6555;50.468;8.480;2023-01-29T11:54:38;10.30;;;8.93;;
12980;SDS011;6555;50.468;8.480;2023-01-29T12:00:16;13.43;;;10.23;;
12980;SDS011;6555;50.468;8.480;2023-01-29T12:05:37;12.77;;;10.57;;
12980;SDS011;6555;50.468;8.480;2023-01-29T13:27:21;8.47;;;6.90;;
12980;SDS011;6555;50.468;8.480;2023-01-29T13:32:54;9.40;;;7.30;;
12980;SDS011;6555;50.468;8.480;2023-01-29T13:38:30;7.23;;;6.47;;
12980;SDS011;6555;50.468;8.480;2023-01-29T13:44:03;10.60;;;7.87;;
12980;SDS011;6555;50.468;8.480;2023-01-29T13:49:24;8.03;;;7.10;;
12980;SDS011;6555;50.468;8.480;2023-01-29T13:54:58;8.80;;;7.50;;
12980;SDS011;6555;50.468;8.480;2023-01-29T14:06:35;7.03;;;6.33;;
12980;SDS011;6555;50.468;8.480;2023-01-29T14:12:31;7.23;;;6.53;;
12980;SDS011;6555;50.468;8.480;2023-01-29T14:18:13;6.27;;;5.60;;
12980;SDS011;6555;50.468;8.480;2023-01-29T14:23:34;6.80;;;6.00;;
12980;SDS011;6555;50.468;8.480;2023-01-29T14:29:15;5.83;;;5.03;;
12980;SDS011;6555;50.468;8.480;2023-01-29T14:34:44;6.83;;;5.60;;
12980;SDS011;6555;50.468;8.480;2023-01-29T14:40:19;6.30;;;5.67;;
12980;SDS011;6555;50.468;8.480;2023-01-29T14:45:38;5.47;;;4.97;;
12980;SDS011;6555;50.468;8.480;2023-01-29T14:51:10;6.20;;;5.60;;
12980;SDS011;6555;50.468;8.480;2023-01-29T14:56:31;7.00;;;5.97;;
12980;SDS011;6555;50.468;8.480;2023-01-29T15:02:04;6.10;;;4.93;;
12980;SDS011;6555;50.468;8.480;2023-01-29T15:07:33;5.57;;;5.07;;
12980;SDS011;6555;50.468;8.480;2023-01-29T15:13:10;4.77;;;4.30;;
12980;SDS011;6555;50.468;8.480;2023-01-29T15:18:35;5.43;;;4.53;;
12980;SDS011;6555;50.468;8.480;2023-01-29T15:24:12;5.67;;;5.03;;
12980;SDS011;6555;50.468;8.480;2023-01-29T15:29:29;4.60;;;4.20;;
12980;SDS011;6555;50.468;8.480;2023-01-29T15:34:59;5.03;;;4.53;;
12980;SDS011;6555;50.468;8.480;2023-01-29T15:40:17;5.10;;;4.60;;
12980;SDS011;6555;50.468;8.480;2023-01-29T15:45:48;4.27;;;3.87;;
12980;SDS011;6555;50.468;8.480;2023-01-29T15:51:05;4.50;;;4.03;;
12980;SDS011;6555;50.468;8.480;2023-01-29T15:56:37;5.93;;;4.20;;
12980;SDS011;6555;50.468;8.480;2023-01-29T16:01:56;5.03;;;4.20;;
12980;SDS011;6555;50.468;8.480;2023-01-29T16:07:26;5.50;;;3.97;;
12980;SDS011;6555;50.468;8.480;2023-01-29T16:12:44;5.03;;;4.10;;
12980;SDS011;6555;50.468;8.480;2023-01-29T16:18:18;4.93;;;4.43;;
12980;SDS011;6555;50.468;8.480;2023-01-29T16:23:39;3.47;;;3.17;;
12980;SDS011;6555;50.468;8.480;2023-01-29T16:29:13;3.87;;;3.47;;
12980;SDS011;6555;50.468;8.480;2023-01-29T16:34:33;4.10;;;3.10;;
12980;SDS011;6555;50.468;8.480;2023-01-29T16:40:10;3.80;;;3.27;;
12980;SDS011;6555;50.468;8.480;2023-01-29T16:45:30;4.27;;;3.43;;
12980;SDS011;6555;50.468;8.480;2023-01-29T16:51:04;4.40;;;3.60;;
12980;SDS011;6555;50.468;8.480;2023-01-29T16:56:21;3.57;;;3.23;;
12980;SDS011;6555;50.468;8.480;2023-01-29T17:01:53;4.03;;;3.03;;
12980;SDS011;6555;50.468;8.480;2023-01-29T17:07:11;3.37;;;2.97;;
12980;SDS011;6555;50.468;8.480;2023-01-29T17:12:52;3.97;;;3.50;;
12980;SDS011;6555;50.468;8.480;2023-01-29T17:18:14;4.13;;;3.67;;
12980;SDS011;6555;50.468;8.480;2023-01-29T17:23:46;4.93;;;4.00;;
12980;SDS011;6555;50.468;8.480;2023-01-29T17:29:02;4.30;;;3.30;;
12980;SDS011;6555;50.468;8.480;2023-01-29T17:34:33;3.47;;;3.17;;
12980;SDS011;6555;50.468;8.480;2023-01-29T17:39:50;3.00;;;2.57;;
12980;SDS011;6555;50.468;8.480;2023-01-29T17:45:21;3.20;;;2.80;;
12980;SDS011;6555;50.468;8.480;2023-01-29T17:50:38;4.53;;;3.73;;
12980;SDS011;6555;50.468;8.480;2023-01-29T17:56:11;4.47;;;3.30;;
12980;SDS011;6555;50.468;8.480;2023-01-29T18:01:30;4.83;;;3.47;;
12980;SDS011;6555;50.468;8.480;2023-01-29T18:07:01;3.73;;;3.33;;
12980;SDS011;6555;50.468;8.480;2023-01-29T18:12:18;3.33;;;3.03;;
12980;SDS011;6555;50.468;8.480;2023-01-29T18:17:48;3.20;;;2.90;;
12980;SDS011;6555;50.468;8.480;2023-01-29T18:23:07;3.53;;;3.07;;
12980;SDS011;6555;50.468;8.480;2023-01-29T18:28:38;3.33;;;3.03;;
12980;SDS011;6555;50.468;8.480;2023-01-29T18:33:57;4.33;;;3.53;;
12980;SDS011;6555;50.468;8.480;2023-01-29T18:39:28;4.13;;;3.73;;
12980;SDS011;6555;50.468;8.480;2023-01-29T18:44:45;4.70;;;3.33;;
12980;SDS011;6555;50.468;8.480;2023-01-29T18:50:15;5.37;;;4.00;;
12980;SDS011;6555;50.468;8.480;2023-01-29T18:55:33;4.87;;;4.20;;
12980;SDS011;6555;50.468;8.480;2023-01-29T19:01:04;4.03;;;3.60;;
12980;SDS011;6555;50.468;8.480;2023-01-29T19:06:23;3.07;;;2.77;;
12980;SDS011;6555;50.468;8.480;2023-01-29T19:11:54;3.50;;;2.77;;
12980;SDS011;6555;50.468;8.480;2023-01-29T19:17:11;4.07;;;3.53;;
12980;SDS011;6555;50.468;8.480;2023-01-29T19:22:41;4.73;;;4.00;;
12980;SDS011;6555;50.468;8.480;2023-01-29T19:27:58;4.47;;;3.97;;
12980;SDS011;6555;50.468;8.480;2023-01-29T19:33:29;4.90;;;4.40;;
12980;SDS011;6555;50.468;8.480;2023-01-29T19:38:52;5.63;;;4.53;;
12980;SDS011;6555;50.468;8.480;2023-01-29T19:44:23;5.13;;;4.33;;
12980;SDS011;6555;50.468;8.480;2023-01-29T19:49:40;4.60;;;3.80;;
12980;SDS011;6555;50.468;8.480;2023-01-29T19:55:10;3.77;;;3.37;;
12980;SDS011;6555;50.468;8.480;2023-01-29T20:00:28;4.33;;;3.70;;
12980;SDS011;6555;50.468;8.480;2023-01-29T20:06:02;5.17;;;4.40;;
12980;SDS011;6555;50.468;8.480;2023-01-29T20:11:34;8.40;;;5.97;;
12980;SDS011;6555;50.468;8.480;2023-01-29T20:16:51;9.63;;;7.57;;
12980;SDS011;6555;50.468;8.480;2023-01-29T20:22:22;10.47;;;7.60;;
12980;SDS011;6555;50.468;8.480;2023-01-29T20:27:38;12.07;;;8.07;;
12980;SDS011;6555;50.468;8.480;2023-01-29T20:33:09;10.83;;;7.80;;
12980;SDS011;6555;50.468;8.480;2023-01-29T20:38:27;10.90;;;8.10;;
12980;SDS011;6555;50.468;8.480;2023-01-29T20:43:58;8.53;;;7.10;;
12980;SDS011;6555;50.468;8.480;2023-01-29T20:49:15;13.17;;;9.40;;
12980;SDS011;6555;50.468;8.480;2023-01-29T20:54:46;16.70;;;11.10;;
12980;SDS011;6555;50.468;8.480;2023-01-29T21:00:02;14.13;;;10.00;;
12980;SDS011;6555;50.468;8.480;2023-01-29T21:05:34;14.67;;;10.57;;
12980;SDS011;6555;50.468;8.480;2023-01-29T21:10:51;18.60;;;12.73;;
12980;SDS011;6555;50.468;8.480;2023-01-29T21:16:21;19.70;;;13.10;;
12980;SDS011;6555;50.468;8.480;2023-01-29T21:21:38;21.03;;;13.37;;
12980;SDS011;6555;50.468;8.480;2023-01-29T21:27:09;18.57;;;12.67;;
12980;SDS011;6555;50.468;8.480;2023-01-29T21:32:25;16.90;;;11.30;;
12980;SDS011;6555;50.468;8.480;2023-01-29T21:37:56;17.40;;;12.23;;
12980;SDS011;6555;50.468;8.480;2023-01-29T21:43:13;16.77;;;11.27;;
12980;SDS011;6555;50.468;8.480;2023-01-29T21:48:43;15.47;;;10.37;;
12980;SDS011;6555;50.468;8.480;2023-01-29T21:54:00;15.37;;;10.27;;
12980;SDS011;6555;50.468;8.480;2023-01-29T21:59:31;18.13;;;11.00;;
12980;SDS011;6555;50.468;8.480;2023-01-29T22:04:47;16.20;;;10.07;;
12980;SDS011;6555;50.468;8.480;2023-01-29T22:10:34;14.67;;;9.87;;
12980;SDS011;6555;50.468;8.480;2023-01-29T22:15:53;14.23;;;9.77;;
12980;SDS011;6555;50.468;8.480;2023-01-29T22:21:23;13.70;;;9.67;;
12980;SDS011;6555;50.468;8.480;2023-01-29T22:26:43;11.43;;;8.60;;
12980;SDS011;6555;50.468;8.480;2023-01-29T22:32:14;11.97;;;8.33;;
12980;SDS011;6555;50.468;8.480;2023-01-29T22:37:30;13.13;;;9.17;;
12980;SDS011;6555;50.468;8.480;2023-01-29T22:43:01;14.83;;;9.87;;
12980;SDS011;6555;50.468;8.480;2023-01-29T22:48:18;13.40;;;9.50;;
12980;SDS011;6555;50.468;8.480;2023-01-29T22:53:49;10.70;;;7.63;;
12980;SDS011;6555;50.468;8.480;2023-01-29T22:59:09;12.90;;;9.30;;
12980;SDS011;6555;50.468;8.480;2023-01-29T23:04:39;11.47;;;8.43;;
12980;SDS011;6555;50.468;8.480;2023-01-29T23:09:55;14.70;;;8.97;;
12980;SDS011;6555;50.468;8.480;2023-01-29T23:15:26;12.97;;;9.20;;
12980;SDS011;6555;50.468;8.480;2023-01-29T23:20:43;13.20;;;8.93;;
12980;SDS011;6555;50.468;8.480;2023-01-29T23:26:13;15.47;;;10.40;;
12980;SDS011;6555;50.468;8.480;2023-01-29T23:31:48;11.57;;;8.20;;
12980;SDS011;6555;50.468;8.480;2023-01-29T23:37:19;12.07;;;8.50;;
12980;SDS011;6555;50.468;8.480;2023-01-29T23:42:35;10.53;;;7.83;;
12980;SDS011;6555;50.468;8.480;2023-01-29T23:48:06;15.63;;;10.70;;
12980;SDS011;6555;50.468;8.480;2023-01-29T23:53:23;14.07;;;9.60;;
12980;SDS011;6555;50.468;8.480;2023-01-29T23:58:53;14.23;;;10.30;;
